sensor_id;sensor_type;location;lat;lon;timestamp;temperature;humidity
23116;DHT22;11727;52.134;5.052;2022-12-20T00:02:21;9.10;99.90
23116;DHT22;11727;52.134;5.052;2022-12-20T00:04:46;9.10;99.90
23116;DHT22;11727;52.134;5.052;2022-12-20T00:07:12;9.10;99.90
23116;DHT22;11727;52.134;5.052;2022-12-20T00:09:38;9.20;99.90
23116;DHT22;11727;52.134;5.052;2022-12-20T00:12:03;9.20;99.90
23116;DHT22;11727;52.134;5.052;2022-12-20T00:14:29;9.20;99.90
23116;DHT22;11727;52.134;5.052;2022-12-20T00:16:55;9.20;99.90
23116;DHT22;11727;52.134;5.052;2022-12-20T00:19:20;9.30;99.90
23116;DHT22;11727;52.134;5.052;2022-12-20T00:21:46;9.30;99.90
23116;DHT22;11727;52.134;5.052;2022-12-20T00:24:11;9.40;99.90
23116;DHT22;11727;52.134;5.052;2022-12-20T00:26:37;9.40;99.90
23116;DHT22;11727;52.134;5.052;2022-12-20T00:29:03;9.40;99.90
23116;DHT22;11727;52.134;5.052;2022-12-20T00:31:30;9.40;99.90
23116;DHT22;11727;52.134;5.052;2022-12-20T00:33:56;9.50;99.90
23116;DHT22;11727;52.134;5.052;2022-12-20T00:36:24;9.50;99.90
23116;DHT22;11727;52.134;5.052;2022-12-20T00:38:52;9.50;99.90
23116;DHT22;11727;52.134;5.052;2022-12-20T00:41:20;9.50;99.90
23116;DHT22;11727;52.134;5.052;2022-12-20T00:43:47;9.50;99.90
23116;DHT22;11727;52.134;5.052;2022-12-20T00:46:16;9.60;99.90
23116;DHT22;11727;52.134;5.052;2022-12-20T00:48:42;9.60;99.90
23116;DHT22;11727;52.134;5.052;2022-12-20T00:51:13;9.60;99.90
23116;DHT22;11727;52.134;5.052;2022-12-20T00:53:39;9.60;99.90
23116;DHT22;11727;52.134;5.052;2022-12-20T00:56:05;9.70;99.90
23116;DHT22;11727;52.134;5.052;2022-12-20T00:58:33;9.70;99.90
23116;DHT22;11727;52.134;5.052;2022-12-20T01:00:59;9.70;99.90
23116;DHT22;11727;52.134;5.052;2022-12-20T01:03:25;9.70;99.90
23116;DHT22;11727;52.134;5.052;2022-12-20T01:05:54;9.70;99.90
23116;DHT22;11727;52.134;5.052;2022-12-20T01:08:20;9.60;99.90
23116;DHT22;11727;52.134;5.052;2022-12-20T01:10:47;9.60;99.90
23116;DHT22;11727;52.134;5.052;2022-12-20T01:13:22;9.50;99.90
23116;DHT22;11727;52.134;5.052;2022-12-20T01:15:47;9.40;99.90
23116;DHT22;11727;52.134;5.052;2022-12-20T01:18:13;9.40;99.90
23116;DHT22;11727;52.134;5.052;2022-12-20T01:20:38;9.30;99.90
23116;DHT22;11727;52.134;5.052;2022-12-20T01:23:04;9.20;99.90
23116;DHT22;11727;52.134;5.052;2022-12-20T01:25:29;9.20;99.90
23116;DHT22;11727;52.134;5.052;2022-12-20T01:27:55;9.20;99.90
23116;DHT22;11727;52.134;5.052;2022-12-20T01:30:20;9.20;99.90
23116;DHT22;11727;52.134;5.052;2022-12-20T01:32:46;9.20;99.90
23116;DHT22;11727;52.134;5.052;2022-12-20T01:35:11;9.20;99.90
23116;DHT22;11727;52.134;5.052;2022-12-20T01:37:37;9.20;99.90
23116;DHT22;11727;52.134;5.052;2022-12-20T01:40:03;9.20;99.90
23116;DHT22;11727;52.134;5.052;2022-12-20T01:42:28;9.10;99.90
23116;DHT22;11727;52.134;5.052;2022-12-20T01:44:56;9.20;99.90
23116;DHT22;11727;52.134;5.052;2022-12-20T01:47:23;9.20;99.90
23116;DHT22;11727;52.134;5.052;2022-12-20T01:49:50;9.20;99.90
23116;DHT22;11727;52.134;5.052;2022-12-20T01:52:33;9.20;99.90
23116;DHT22;11727;52.134;5.052;2022-12-20T01:55:08;9.20;99.90
23116;DHT22;11727;52.134;5.052;2022-12-20T01:57:45;9.20;99.90
23116;DHT22;11727;52.134;5.052;2022-12-20T02:00:11;9.20;99.90
23116;DHT22;11727;52.134;5.052;2022-12-20T02:02:37;9.20;99.90
23116;DHT22;11727;52.134;5.052;2022-12-20T02:05:04;9.20;99.90
23116;DHT22;11727;52.134;5.052;2022-12-20T02:07:31;9.20;99.90
23116;DHT22;11727;52.134;5.052;2022-12-20T02:09:59;9.20;99.90
23116;DHT22;11727;52.134;5.052;2022-12-20T02:12:28;9.20;99.90
23116;DHT22;11727;52.134;5.052;2022-12-20T02:32:21;9.20;99.90
23116;DHT22;11727;52.134;5.052;2022-12-20T02:34:50;9.20;99.90
23116;DHT22;11727;52.134;5.052;2022-12-20T02:37:16;9.30;99.90
23116;DHT22;11727;52.134;5.052;2022-12-20T02:39:43;9.30;99.90
23116;DHT22;11727;52.134;5.052;2022-12-20T02:42:12;9.30;99.90
23116;DHT22;11727;52.134;5.052;2022-12-20T02:44:43;9.30;99.90
23116;DHT22;11727;52.134;5.052;2022-12-20T02:48:16;9.40;99.90
23116;DHT22;11727;52.134;5.052;2022-12-20T02:50:22;9.40;99.90
23116;DHT22;11727;52.134;5.052;2022-12-20T02:52:51;9.40;99.90
23116;DHT22;11727;52.134;5.052;2022-12-20T02:55:18;9.40;99.90
23116;DHT22;11727;52.134;5.052;2022-12-20T02:57:59;9.40;99.90
23116;DHT22;11727;52.134;5.052;2022-12-20T03:00:31;9.40;99.90
23116;DHT22;11727;52.134;5.052;2022-12-20T03:02:58;9.40;99.90
23116;DHT22;11727;52.134;5.052;2022-12-20T03:05:57;9.40;99.90
23116;DHT22;11727;52.134;5.052;2022-12-20T03:08:24;9.40;99.90
23116;DHT22;11727;52.134;5.052;2022-12-20T03:10:51;9.40;99.90
23116;DHT22;11727;52.134;5.052;2022-12-20T03:13:17;9.40;99.90
23116;DHT22;11727;52.134;5.052;2022-12-20T03:15:43;9.50;99.90
23116;DHT22;11727;52.134;5.052;2022-12-20T03:18:09;9.50;99.90
23116;DHT22;11727;52.134;5.052;2022-12-20T03:20:35;9.50;99.90
23116;DHT22;11727;52.134;5.052;2022-12-20T03:23:00;9.50;99.90
23116;DHT22;11727;52.134;5.052;2022-12-20T03:25:27;9.50;99.90
23116;DHT22;11727;52.134;5.052;2022-12-20T03:27:53;9.50;99.90
23116;DHT22;11727;52.134;5.052;2022-12-20T03:30:18;9.50;99.90
23116;DHT22;11727;52.134;5.052;2022-12-20T03:32:44;9.50;99.90
23116;DHT22;11727;52.134;5.052;2022-12-20T03:35:09;9.60;99.90
23116;DHT22;11727;52.134;5.052;2022-12-20T03:37:35;9.60;99.90
23116;DHT22;11727;52.134;5.052;2022-12-20T03:40:01;9.60;99.90
23116;DHT22;11727;52.134;5.052;2022-12-20T03:42:27;9.60;99.90
23116;DHT22;11727;52.134;5.052;2022-12-20T03:44:52;9.70;99.90
23116;DHT22;11727;52.134;5.052;2022-12-20T03:47:19;9.70;99.90
23116;DHT22;11727;52.134;5.052;2022-12-20T03:49:44;9.70;99.90
23116;DHT22;11727;52.134;5.052;2022-12-20T03:52:11;9.70;99.90
23116;DHT22;11727;52.134;5.052;2022-12-20T03:54:37;9.70;99.90
23116;DHT22;11727;52.134;5.052;2022-12-20T03:57:03;9.70;99.90
23116;DHT22;11727;52.134;5.052;2022-12-20T03:59:29;9.70;99.90
23116;DHT22;11727;52.134;5.052;2022-12-20T04:01:55;9.80;99.90
23116;DHT22;11727;52.134;5.052;2022-12-20T04:04:20;9.80;99.90
23116;DHT22;11727;52.134;5.052;2022-12-20T04:06:46;9.80;99.90
23116;DHT22;11727;52.134;5.052;2022-12-20T04:09:13;9.80;99.90
23116;DHT22;11727;52.134;5.052;2022-12-20T04:11:38;9.80;99.90
23116;DHT22;11727;52.134;5.052;2022-12-20T04:14:04;9.80;99.90
23116;DHT22;11727;52.134;5.052;2022-12-20T04:16:30;9.80;99.90
23116;DHT22;11727;52.134;5.052;2022-12-20T04:18:56;9.80;99.90
23116;DHT22;11727;52.134;5.052;2022-12-20T04:21:23;9.90;99.90
23116;DHT22;11727;52.134;5.052;2022-12-20T04:23:49;9.90;99.90
23116;DHT22;11727;52.134;5.052;2022-12-20T04:26:16;9.90;99.90
23116;DHT22;11727;52.134;5.052;2022-12-20T04:28:41;9.90;99.90
23116;DHT22;11727;52.134;5.052;2022-12-20T04:31:07;9.90;99.90
23116;DHT22;11727;52.134;5.052;2022-12-20T04:33:33;9.90;99.90
23116;DHT22;11727;52.134;5.052;2022-12-20T04:35:58;9.90;99.90
23116;DHT22;11727;52.134;5.052;2022-12-20T04:38:24;9.90;99.90
23116;DHT22;11727;52.134;5.052;2022-12-20T04:40:52;10.00;99.90
23116;DHT22;11727;52.134;5.052;2022-12-20T04:43:19;10.00;99.90
23116;DHT22;11727;52.134;5.052;2022-12-20T04:45:50;10.00;99.90
23116;DHT22;11727;52.134;5.052;2022-12-20T04:48:21;10.00;99.90
23116;DHT22;11727;52.134;5.052;2022-12-20T04:50:49;10.10;99.90
23116;DHT22;11727;52.134;5.052;2022-12-20T04:53:15;10.10;99.90
23116;DHT22;11727;52.134;5.052;2022-12-20T04:56:01;10.20;99.90
23116;DHT22;11727;52.134;5.052;2022-12-20T04:58:27;10.20;99.90
23116;DHT22;11727;52.134;5.052;2022-12-20T05:00:53;10.20;99.90
23116;DHT22;11727;52.134;5.052;2022-12-20T05:03:20;10.20;99.90
23116;DHT22;11727;52.134;5.052;2022-12-20T05:05:46;10.20;99.90
23116;DHT22;11727;52.134;5.052;2022-12-20T05:08:11;10.20;99.90
23116;DHT22;11727;52.134;5.052;2022-12-20T05:10:37;10.10;99.90
23116;DHT22;11727;52.134;5.052;2022-12-20T05:13:03;10.10;99.90
23116;DHT22;11727;52.134;5.052;2022-12-20T05:15:28;10.20;99.90
23116;DHT22;11727;52.134;5.052;2022-12-20T05:17:55;10.10;99.90
23116;DHT22;11727;52.134;5.052;2022-12-20T05:20:25;10.10;99.90
23116;DHT22;11727;52.134;5.052;2022-12-20T05:22:51;10.10;99.90
23116;DHT22;11727;52.134;5.052;2022-12-20T05:25:37;10.10;99.90
23116;DHT22;11727;52.134;5.052;2022-12-20T05:28:35;10.10;99.90
23116;DHT22;11727;52.134;5.052;2022-12-20T05:31:01;10.10;99.90
23116;DHT22;11727;52.134;5.052;2022-12-20T05:33:27;10.10;99.90
23116;DHT22;11727;52.134;5.052;2022-12-20T05:35:53;10.10;99.90
23116;DHT22;11727;52.134;5.052;2022-12-20T05:38:19;10.10;99.90
23116;DHT22;11727;52.134;5.052;2022-12-20T05:40:47;10.10;99.90
23116;DHT22;11727;52.134;5.052;2022-12-20T05:43:15;10.10;99.90
23116;DHT22;11727;52.134;5.052;2022-12-20T05:45:48;10.10;99.90
23116;DHT22;11727;52.134;5.052;2022-12-20T05:48:15;10.10;99.90
23116;DHT22;11727;52.134;5.052;2022-12-20T05:50:41;10.20;99.90
23116;DHT22;11727;52.134;5.052;2022-12-20T05:53:09;10.20;99.90
23116;DHT22;11727;52.134;5.052;2022-12-20T05:55:35;10.20;99.90
23116;DHT22;11727;52.134;5.052;2022-12-20T05:58:01;10.20;99.90
23116;DHT22;11727;52.134;5.052;2022-12-20T06:00:26;10.20;99.90
23116;DHT22;11727;52.134;5.052;2022-12-20T06:02:52;10.20;99.90
23116;DHT22;11727;52.134;5.052;2022-12-20T06:05:17;10.30;99.90
23116;DHT22;11727;52.134;5.052;2022-12-20T06:07:44;10.20;99.90
23116;DHT22;11727;52.134;5.052;2022-12-20T06:10:10;10.30;99.90
23116;DHT22;11727;52.134;5.052;2022-12-20T06:12:36;10.30;99.90
23116;DHT22;11727;52.134;5.052;2022-12-20T06:15:01;10.40;99.90
23116;DHT22;11727;52.134;5.052;2022-12-20T06:17:27;10.40;99.90
23116;DHT22;11727;52.134;5.052;2022-12-20T06:19:53;10.40;99.90
23116;DHT22;11727;52.134;5.052;2022-12-20T06:22:19;10.40;99.90
23116;DHT22;11727;52.134;5.052;2022-12-20T06:24:44;10.40;99.90
23116;DHT22;11727;52.134;5.052;2022-12-20T06:27:10;10.50;99.90
23116;DHT22;11727;52.134;5.052;2022-12-20T06:29:36;10.50;99.90
23116;DHT22;11727;52.134;5.052;2022-12-20T06:32:02;10.60;99.90
23116;DHT22;11727;52.134;5.052;2022-12-20T06:34:30;10.60;99.90
23116;DHT22;11727;52.134;5.052;2022-12-20T06:36:56;10.60;99.90
23116;DHT22;11727;52.134;5.052;2022-12-20T06:39:21;10.70;99.90
23116;DHT22;11727;52.134;5.052;2022-12-20T06:41:47;10.70;99.90
23116;DHT22;11727;52.134;5.052;2022-12-20T06:44:12;10.70;99.90
23116;DHT22;11727;52.134;5.052;2022-12-20T06:46:38;10.70;99.90
23116;DHT22;11727;52.134;5.052;2022-12-20T06:49:03;10.70;99.90
23116;DHT22;11727;52.134;5.052;2022-12-20T06:51:29;10.70;99.90
23116;DHT22;11727;52.134;5.052;2022-12-20T06:53:54;10.70;99.90
23116;DHT22;11727;52.134;5.052;2022-12-20T06:56:20;10.70;99.90
23116;DHT22;11727;52.134;5.052;2022-12-20T06:58:45;10.80;99.90
23116;DHT22;11727;52.134;5.052;2022-12-20T07:01:11;10.70;99.90
23116;DHT22;11727;52.134;5.052;2022-12-20T07:03:37;10.80;99.90
23116;DHT22;11727;52.134;5.052;2022-12-20T07:06:03;10.70;99.90
23116;DHT22;11727;52.134;5.052;2022-12-20T07:08:47;10.80;99.90
23116;DHT22;11727;52.134;5.052;2022-12-20T07:11:12;10.80;99.90
23116;DHT22;11727;52.134;5.052;2022-12-20T07:13:38;10.80;99.90
23116;DHT22;11727;52.134;5.052;2022-12-20T07:16:04;10.80;99.90
23116;DHT22;11727;52.134;5.052;2022-12-20T07:18:30;10.80;99.90
23116;DHT22;11727;52.134;5.052;2022-12-20T07:21:03;10.80;99.90
23116;DHT22;11727;52.134;5.052;2022-12-20T07:23:29;10.80;99.90
23116;DHT22;11727;52.134;5.052;2022-12-20T07:25:56;10.90;99.90
23116;DHT22;11727;52.134;5.052;2022-12-20T07:28:23;10.90;99.90
23116;DHT22;11727;52.134;5.052;2022-12-20T07:30:49;10.90;99.90
23116;DHT22;11727;52.134;5.052;2022-12-20T07:33:15;10.90;99.90
23116;DHT22;11727;52.134;5.052;2022-12-20T07:35:40;10.90;99.90
23116;DHT22;11727;52.134;5.052;2022-12-20T07:38:08;10.80;99.90
23116;DHT22;11727;52.134;5.052;2022-12-20T07:40:34;10.80;99.90
23116;DHT22;11727;52.134;5.052;2022-12-20T07:42:59;10.80;99.90
23116;DHT22;11727;52.134;5.052;2022-12-20T07:45:25;10.80;99.90
23116;DHT22;11727;52.134;5.052;2022-12-20T07:47:50;10.70;99.90
23116;DHT22;11727;52.134;5.052;2022-12-20T07:50:16;10.70;99.90
23116;DHT22;11727;52.134;5.052;2022-12-20T07:52:43;10.60;99.90
23116;DHT22;11727;52.134;5.052;2022-12-20T07:55:12;10.60;99.90
23116;DHT22;11727;52.134;5.052;2022-12-20T07:57:44;10.50;99.90
23116;DHT22;11727;52.134;5.052;2022-12-20T08:00:12;10.50;99.90
23116;DHT22;11727;52.134;5.052;2022-12-20T08:02:44;10.40;99.90
23116;DHT22;11727;52.134;5.052;2022-12-20T08:05:11;10.30;99.90
23116;DHT22;11727;52.134;5.052;2022-12-20T08:07:39;10.30;99.90
23116;DHT22;11727;52.134;5.052;2022-12-20T08:10:08;10.20;99.90
23116;DHT22;11727;52.134;5.052;2022-12-20T08:12:34;10.20;99.90
23116;DHT22;11727;52.134;5.052;2022-12-20T08:14:59;10.10;99.90
23116;DHT22;11727;52.134;5.052;2022-12-20T08:17:25;10.10;99.90
23116;DHT22;11727;52.134;5.052;2022-12-20T08:19:51;10.10;99.90
23116;DHT22;11727;52.134;5.052;2022-12-20T08:22:17;10.00;99.90
23116;DHT22;11727;52.134;5.052;2022-12-20T08:24:44;10.00;99.90
23116;DHT22;11727;52.134;5.052;2022-12-20T08:27:09;10.00;99.90
23116;DHT22;11727;52.134;5.052;2022-12-20T08:29:35;9.90;99.90
23116;DHT22;11727;52.134;5.052;2022-12-20T08:32:00;9.90;99.90
23116;DHT22;11727;52.134;5.052;2022-12-20T08:34:26;9.90;99.90
23116;DHT22;11727;52.134;5.052;2022-12-20T08:36:52;9.90;99.90
23116;DHT22;11727;52.134;5.052;2022-12-20T08:39:19;9.90;99.90
23116;DHT22;11727;52.134;5.052;2022-12-20T08:41:44;9.90;99.90
23116;DHT22;11727;52.134;5.052;2022-12-20T08:44:10;9.90;99.90
23116;DHT22;11727;52.134;5.052;2022-12-20T08:46:36;9.90;99.90
23116;DHT22;11727;52.134;5.052;2022-12-20T08:49:05;9.90;99.90
23116;DHT22;11727;52.134;5.052;2022-12-20T08:51:31;9.90;99.90
23116;DHT22;11727;52.134;5.052;2022-12-20T08:53:56;9.90;99.90
23116;DHT22;11727;52.134;5.052;2022-12-20T08:56:22;9.90;99.90
23116;DHT22;11727;52.134;5.052;2022-12-20T08:58:48;9.90;99.90
23116;DHT22;11727;52.134;5.052;2022-12-20T09:01:17;9.90;99.90
23116;DHT22;11727;52.134;5.052;2022-12-20T09:03:43;9.90;99.90
23116;DHT22;11727;52.134;5.052;2022-12-20T09:06:15;9.90;99.90
23116;DHT22;11727;52.134;5.052;2022-12-20T09:08:41;9.90;99.90
23116;DHT22;11727;52.134;5.052;2022-12-20T09:13:33;9.80;99.90
23116;DHT22;11727;52.134;5.052;2022-12-20T09:16:03;9.80;99.90
23116;DHT22;11727;52.134;5.052;2022-12-20T09:18:29;9.80;99.90
23116;DHT22;11727;52.134;5.052;2022-12-20T09:20:58;9.80;99.90
23116;DHT22;11727;52.134;5.052;2022-12-20T09:23:24;9.80;99.90
23116;DHT22;11727;52.134;5.052;2022-12-20T09:25:50;9.80;99.90
23116;DHT22;11727;52.134;5.052;2022-12-20T09:28:16;9.80;99.90
23116;DHT22;11727;52.134;5.052;2022-12-20T09:30:41;9.80;99.90
23116;DHT22;11727;52.134;5.052;2022-12-20T09:33:07;9.80;99.90
23116;DHT22;11727;52.134;5.052;2022-12-20T09:35:32;9.80;99.90
23116;DHT22;11727;52.134;5.052;2022-12-20T09:37:59;9.80;99.90
23116;DHT22;11727;52.134;5.052;2022-12-20T09:40:28;9.80;99.90
23116;DHT22;11727;52.134;5.052;2022-12-20T09:42:55;9.80;99.90
23116;DHT22;11727;52.134;5.052;2022-12-20T09:45:27;9.80;99.90
23116;DHT22;11727;52.134;5.052;2022-12-20T09:47:53;9.80;99.90
23116;DHT22;11727;52.134;5.052;2022-12-20T09:50:27;9.80;99.90
23116;DHT22;11727;52.134;5.052;2022-12-20T09:53:23;9.80;99.90
23116;DHT22;11727;52.134;5.052;2022-12-20T09:55:59;9.80;99.90
23116;DHT22;11727;52.134;5.052;2022-12-20T09:58:41;9.90;99.90
23116;DHT22;11727;52.134;5.052;2022-12-20T10:01:19;9.90;99.90
23116;DHT22;11727;52.134;5.052;2022-12-20T10:03:45;9.90;99.90
23116;DHT22;11727;52.134;5.052;2022-12-20T10:08:54;9.90;99.90
23116;DHT22;11727;52.134;5.052;2022-12-20T10:11:40;9.90;99.90
23116;DHT22;11727;52.134;5.052;2022-12-20T10:17:04;10.00;99.90
23116;DHT22;11727;52.134;5.052;2022-12-20T10:20:02;10.00;99.90
23116;DHT22;11727;52.134;5.052;2022-12-20T10:25:19;10.00;99.90
23116;DHT22;11727;52.134;5.052;2022-12-20T10:27:46;10.10;99.90
23116;DHT22;11727;52.134;5.052;2022-12-20T10:30:23;10.00;99.90
23116;DHT22;11727;52.134;5.052;2022-12-20T10:32:52;10.10;99.90
23116;DHT22;11727;52.134;5.052;2022-12-20T10:40:33;10.10;99.90
23116;DHT22;11727;52.134;5.052;2022-12-20T10:43:00;10.10;99.90
23116;DHT22;11727;52.134;5.052;2022-12-20T10:45:54;10.10;99.90
23116;DHT22;11727;52.134;5.052;2022-12-20T10:48:41;10.10;99.90
23116;DHT22;11727;52.134;5.052;2022-12-20T10:54:02;10.10;99.90
23116;DHT22;11727;52.134;5.052;2022-12-20T10:56:31;10.10;99.90
23116;DHT22;11727;52.134;5.052;2022-12-20T10:58:58;10.10;99.90
23116;DHT22;11727;52.134;5.052;2022-12-20T11:01:35;10.10;99.90
23116;DHT22;11727;52.134;5.052;2022-12-20T11:04:02;10.10;99.90
23116;DHT22;11727;52.134;5.052;2022-12-20T11:09:22;10.10;99.90
23116;DHT22;11727;52.134;5.052;2022-12-20T11:14:31;10.10;99.90
23116;DHT22;11727;52.134;5.052;2022-12-20T11:16:59;10.10;99.90
23116;DHT22;11727;52.134;5.052;2022-12-20T11:19:31;10.10;99.90
23116;DHT22;11727;52.134;5.052;2022-12-20T11:22:25;10.10;99.90
23116;DHT22;11727;52.134;5.052;2022-12-20T11:25:31;10.20;99.90
23116;DHT22;11727;52.134;5.052;2022-12-20T11:31:33;10.20;99.90
23116;DHT22;11727;52.134;5.052;2022-12-20T11:37:16;10.20;99.90
23116;DHT22;11727;52.134;5.052;2022-12-20T11:42:31;10.20;99.90
23116;DHT22;11727;52.134;5.052;2022-12-20T11:48:06;10.20;99.90
23116;DHT22;11727;52.134;5.052;2022-12-20T11:53:42;10.20;99.90
23116;DHT22;11727;52.134;5.052;2022-12-20T11:56:29;10.20;99.90
23116;DHT22;11727;52.134;5.052;2022-12-20T11:59:21;10.20;99.90
23116;DHT22;11727;52.134;5.052;2022-12-20T12:04:24;10.20;99.90
23116;DHT22;11727;52.134;5.052;2022-12-20T12:06:56;10.20;99.90
23116;DHT22;11727;52.134;5.052;2022-12-20T12:09:35;10.30;99.90
23116;DHT22;11727;52.134;5.052;2022-12-20T12:12:24;10.30;99.90
23116;DHT22;11727;52.134;5.052;2022-12-20T12:17:52;10.30;99.90
23116;DHT22;11727;52.134;5.052;2022-12-20T12:20:32;10.30;99.90
23116;DHT22;11727;52.134;5.052;2022-12-20T12:23:22;10.30;99.90
23116;DHT22;11727;52.134;5.052;2022-12-20T12:25:50;10.30;99.90
23116;DHT22;11727;52.134;5.052;2022-12-20T12:28:17;10.30;99.90
23116;DHT22;11727;52.134;5.052;2022-12-20T12:30:54;10.30;99.90
23116;DHT22;11727;52.134;5.052;2022-12-20T12:33:33;10.30;99.90
23116;DHT22;11727;52.134;5.052;2022-12-20T12:36:05;10.30;99.90
23116;DHT22;11727;52.134;5.052;2022-12-20T12:47:18;10.30;99.90
23116;DHT22;11727;52.134;5.052;2022-12-20T12:49:49;10.30;99.90
23116;DHT22;11727;52.134;5.052;2022-12-20T12:55:49;10.30;99.90
23116;DHT22;11727;52.134;5.052;2022-12-20T13:03:14;10.30;99.90
23116;DHT22;11727;52.134;5.052;2022-12-20T13:05:41;10.30;99.90
23116;DHT22;11727;52.134;5.052;2022-12-20T13:08:15;10.30;99.90
23116;DHT22;11727;52.134;5.052;2022-12-20T13:13:20;10.30;99.90
23116;DHT22;11727;52.134;5.052;2022-12-20T13:15:47;10.30;99.90
23116;DHT22;11727;52.134;5.052;2022-12-20T13:20:38;10.30;99.90
23116;DHT22;11727;52.134;5.052;2022-12-20T13:23:13;10.30;99.90
23116;DHT22;11727;52.134;5.052;2022-12-20T13:25:46;10.30;99.90
23116;DHT22;11727;52.134;5.052;2022-12-20T13:30:42;10.30;99.90
23116;DHT22;11727;52.134;5.052;2022-12-20T13:36:33;10.30;99.90
23116;DHT22;11727;52.134;5.052;2022-12-20T13:39:01;10.30;99.90
23116;DHT22;11727;52.134;5.052;2022-12-20T13:41:43;10.30;99.90
23116;DHT22;11727;52.134;5.052;2022-12-20T13:49:41;10.30;99.90
23116;DHT22;11727;52.134;5.052;2022-12-20T13:54:48;10.30;99.90
23116;DHT22;11727;52.134;5.052;2022-12-20T13:57:17;10.30;99.90
23116;DHT22;11727;52.134;5.052;2022-12-20T13:59:52;10.30;99.90
23116;DHT22;11727;52.134;5.052;2022-12-20T14:02:22;10.30;99.90
23116;DHT22;11727;52.134;5.052;2022-12-20T14:05:02;10.30;99.90
23116;DHT22;11727;52.134;5.052;2022-12-20T14:07:30;10.30;99.90
23116;DHT22;11727;52.134;5.052;2022-12-20T14:10:01;10.30;99.90
23116;DHT22;11727;52.134;5.052;2022-12-20T14:12:29;10.30;99.90
23116;DHT22;11727;52.134;5.052;2022-12-20T14:14:56;10.30;99.90
23116;DHT22;11727;52.134;5.052;2022-12-20T14:17:27;10.30;99.90
23116;DHT22;11727;52.134;5.052;2022-12-20T14:20:12;10.30;99.90
23116;DHT22;11727;52.134;5.052;2022-12-20T14:25:41;10.30;99.90
23116;DHT22;11727;52.134;5.052;2022-12-20T14:30:42;10.30;99.90
23116;DHT22;11727;52.134;5.052;2022-12-20T14:33:18;10.30;99.90
23116;DHT22;11727;52.134;5.052;2022-12-20T14:35:49;10.30;99.90
23116;DHT22;11727;52.134;5.052;2022-12-20T14:38:28;10.30;99.90
23116;DHT22;11727;52.134;5.052;2022-12-20T14:40:54;10.30;99.90
23116;DHT22;11727;52.134;5.052;2022-12-20T14:43:27;10.30;99.90
23116;DHT22;11727;52.134;5.052;2022-12-20T14:46:07;10.30;99.90
23116;DHT22;11727;52.134;5.052;2022-12-20T14:48:33;10.30;99.90
23116;DHT22;11727;52.134;5.052;2022-12-20T14:50:59;10.30;99.90
23116;DHT22;11727;52.134;5.052;2022-12-20T14:53:28;10.30;99.90
23116;DHT22;11727;52.134;5.052;2022-12-20T14:55:54;10.30;99.90
23116;DHT22;11727;52.134;5.052;2022-12-20T15:03:49;10.30;99.90
23116;DHT22;11727;52.134;5.052;2022-12-20T15:06:40;10.30;99.90
23116;DHT22;11727;52.134;5.052;2022-12-20T15:09:07;10.30;99.90
23116;DHT22;11727;52.134;5.052;2022-12-20T15:11:34;10.30;99.90
23116;DHT22;11727;52.134;5.052;2022-12-20T15:14:01;10.30;99.90
23116;DHT22;11727;52.134;5.052;2022-12-20T15:16:30;10.20;99.90
23116;DHT22;11727;52.134;5.052;2022-12-20T15:18:58;10.20;99.90
23116;DHT22;11727;52.134;5.052;2022-12-20T15:23:51;10.20;99.90
23116;DHT22;11727;52.134;5.052;2022-12-20T15:26:19;10.30;99.90
23116;DHT22;11727;52.134;5.052;2022-12-20T15:28:45;10.20;99.90
23116;DHT22;11727;52.134;5.052;2022-12-20T15:31:13;10.20;99.90
23116;DHT22;11727;52.134;5.052;2022-12-20T15:33:41;10.20;99.90
23116;DHT22;11727;52.134;5.052;2022-12-20T15:36:14;10.20;99.90
23116;DHT22;11727;52.134;5.052;2022-12-20T15:38:40;10.20;99.90
23116;DHT22;11727;52.134;5.052;2022-12-20T15:43:42;10.20;99.90
23116;DHT22;11727;52.134;5.052;2022-12-20T15:46:09;10.20;99.90
23116;DHT22;11727;52.134;5.052;2022-12-20T15:48:35;10.20;99.90
23116;DHT22;11727;52.134;5.052;2022-12-20T15:51:01;10.20;99.90
23116;DHT22;11727;52.134;5.052;2022-12-20T15:53:36;10.20;99.90
23116;DHT22;11727;52.134;5.052;2022-12-20T15:56:02;10.20;99.90
23116;DHT22;11727;52.134;5.052;2022-12-20T15:58:28;10.10;99.90
23116;DHT22;11727;52.134;5.052;2022-12-20T16:00:56;10.20;99.90
23116;DHT22;11727;52.134;5.052;2022-12-20T16:03:28;10.10;99.90
23116;DHT22;11727;52.134;5.052;2022-12-20T16:05:54;10.10;99.90
23116;DHT22;11727;52.134;5.052;2022-12-20T16:08:20;10.20;99.90
23116;DHT22;11727;52.134;5.052;2022-12-20T16:10:47;10.10;99.90
23116;DHT22;11727;52.134;5.052;2022-12-20T16:13:32;10.10;99.90
23116;DHT22;11727;52.134;5.052;2022-12-20T16:15:57;10.10;99.90
23116;DHT22;11727;52.134;5.052;2022-12-20T16:18:24;10.10;99.90
23116;DHT22;11727;52.134;5.052;2022-12-20T16:20:51;10.10;99.90
23116;DHT22;11727;52.134;5.052;2022-12-20T16:23:18;10.10;99.90
23116;DHT22;11727;52.134;5.052;2022-12-20T16:25:47;10.00;99.90
23116;DHT22;11727;52.134;5.052;2022-12-20T16:28:13;10.00;99.90
23116;DHT22;11727;52.134;5.052;2022-12-20T16:30:38;10.00;99.90
23116;DHT22;11727;52.134;5.052;2022-12-20T16:33:04;10.00;99.90
23116;DHT22;11727;52.134;5.052;2022-12-20T16:35:33;10.00;99.90
23116;DHT22;11727;52.134;5.052;2022-12-20T16:37:59;10.00;99.90
23116;DHT22;11727;52.134;5.052;2022-12-20T16:40:27;10.00;99.90
23116;DHT22;11727;52.134;5.052;2022-12-20T16:42:55;10.00;99.90
23116;DHT22;11727;52.134;5.052;2022-12-20T16:45:24;10.00;99.90
23116;DHT22;11727;52.134;5.052;2022-12-20T16:47:51;10.00;99.90
23116;DHT22;11727;52.134;5.052;2022-12-20T16:50:19;10.00;99.90
23116;DHT22;11727;52.134;5.052;2022-12-20T16:52:45;10.00;99.90
23116;DHT22;11727;52.134;5.052;2022-12-20T16:55:21;10.00;99.90
23116;DHT22;11727;52.134;5.052;2022-12-20T16:57:47;9.90;99.90
23116;DHT22;11727;52.134;5.052;2022-12-20T17:00:21;9.90;99.90
23116;DHT22;11727;52.134;5.052;2022-12-20T17:02:48;9.90;99.90
23116;DHT22;11727;52.134;5.052;2022-12-20T17:07:45;9.90;99.90
23116;DHT22;11727;52.134;5.052;2022-12-20T17:10:10;10.00;99.90
23116;DHT22;11727;52.134;5.052;2022-12-20T17:12:36;9.90;99.90
23116;DHT22;11727;52.134;5.052;2022-12-20T17:15:01;9.90;99.90
23116;DHT22;11727;52.134;5.052;2022-12-20T17:17:29;9.90;99.90
23116;DHT22;11727;52.134;5.052;2022-12-20T17:19:54;9.90;99.90
23116;DHT22;11727;52.134;5.052;2022-12-20T17:22:20;9.90;99.90
23116;DHT22;11727;52.134;5.052;2022-12-20T17:24:45;9.90;99.90
23116;DHT22;11727;52.134;5.052;2022-12-20T17:27:11;9.90;99.90
23116;DHT22;11727;52.134;5.052;2022-12-20T17:29:36;9.90;99.90
23116;DHT22;11727;52.134;5.052;2022-12-20T17:32:17;9.90;99.90
23116;DHT22;11727;52.134;5.052;2022-12-20T17:34:44;9.90;99.90
23116;DHT22;11727;52.134;5.052;2022-12-20T17:37:09;9.90;99.90
23116;DHT22;11727;52.134;5.052;2022-12-20T17:39:35;9.90;99.90
23116;DHT22;11727;52.134;5.052;2022-12-20T17:42:00;9.90;99.90
23116;DHT22;11727;52.134;5.052;2022-12-20T17:44:27;9.90;99.90
23116;DHT22;11727;52.134;5.052;2022-12-20T17:46:54;9.90;99.90